Terminal Aerodrome Forecast
Issued by NWS Denver/Boulder, CO

Home | Current Version | Previous Version | Text Only | Print | Product List | Glossary On
Versions: 1 2 3 4 5 6 7 8 9 10 11 12 13 14 15 16 17 18 19 20 21 22 23 24 25 26 27 28 29 30 31 32 33 34 35 36 37 38 39 40 41 42 43 44 45 46 47 48 49 50
000
FTUS45 KBOU 021140
TAFDEN
TAF
KDEN 021140Z 0212/0318 21008KT P6SM SCT140 BKN200
     FM021500 28007KT P6SM FEW200
     FM021800 31007KT P6SM SCT120
     FM022100 VRB05KT P6SM FEW090 SCT120
     FM022300 32008KT P6SM VCSH SCT080 BKN120
      TEMPO 0223/0301 VRB20G30KT BKN070
     FM030300 21010KT P6SM SCT100 BKN150
     FM031400 28007KT P6SM SCT200=

USA.gov is the U.S. government's official web portal to all federal, state and local government web resources and services.